sensor_id;sensor_type;location;lat;lon;timestamp;P1;durP1;ratioP1;P2;durP2;ratioP2
71965;SDS011;59836;52.132;5.442;2023-06-01T00:00:56;7.90;;;3.45;;
71965;SDS011;59836;52.132;5.442;2023-06-01T00:03:22;9.03;;;4.10;;
71965;SDS011;59836;52.132;5.442;2023-06-01T00:05:49;7.00;;;3.60;;
71965;SDS011;59836;52.132;5.442;2023-06-01T00:08:19;8.30;;;3.45;;
71965;SDS011;59836;52.132;5.442;2023-06-01T00:10:46;8.90;;;3.28;;
71965;SDS011;59836;52.132;5.442;2023-06-01T00:13:13;8.13;;;3.90;;
71965;SDS011;59836;52.132;5.442;2023-06-01T00:15:39;7.57;;;3.40;;
71965;SDS011;59836;52.132;5.442;2023-06-01T00:18:06;9.48;;;3.90;;
71965;SDS011;59836;52.132;5.442;2023-06-01T00:20:34;8.20;;;3.70;;
71965;SDS011;59836;52.132;5.442;2023-06-01T00:23:01;10.65;;;3.92;;
71965;SDS011;59836;52.132;5.442;2023-06-01T00:25:28;8.35;;;4.60;;
71965;SDS011;59836;52.132;5.442;2023-06-01T00:27:55;9.33;;;4.60;;
71965;SDS011;59836;52.132;5.442;2023-06-01T00:30:22;8.43;;;3.65;;
71965;SDS011;59836;52.132;5.442;2023-06-01T00:32:48;9.63;;;3.97;;
71965;SDS011;59836;52.132;5.442;2023-06-01T00:35:15;8.50;;;3.53;;
71965;SDS011;59836;52.132;5.442;2023-06-01T00:37:42;7.63;;;3.78;;
71965;SDS011;59836;52.132;5.442;2023-06-01T00:40:08;12.03;;;3.97;;
71965;SDS011;59836;52.132;5.442;2023-06-01T00:42:35;7.10;;;3.47;;
71965;SDS011;59836;52.132;5.442;2023-06-01T00:45:02;9.63;;;3.83;;
71965;SDS011;59836;52.132;5.442;2023-06-01T00:47:28;7.05;;;3.97;;
71965;SDS011;59836;52.132;5.442;2023-06-01T00:49:55;8.38;;;3.78;;
71965;SDS011;59836;52.132;5.442;2023-06-01T00:52:22;6.93;;;3.10;;
71965;SDS011;59836;52.132;5.442;2023-06-01T00:54:49;9.45;;;3.80;;
71965;SDS011;59836;52.132;5.442;2023-06-01T00:57:16;12.40;;;3.50;;
71965;SDS011;59836;52.132;5.442;2023-06-01T00:59:43;7.63;;;3.53;;
71965;SDS011;59836;52.132;5.442;2023-06-01T01:02:09;6.50;;;3.50;;
71965;SDS011;59836;52.132;5.442;2023-06-01T01:04:41;8.63;;;3.50;;
71965;SDS011;59836;52.132;5.442;2023-06-01T01:07:15;6.85;;;3.42;;
71965;SDS011;59836;52.132;5.442;2023-06-01T01:09:54;8.35;;;3.53;;
71965;SDS011;59836;52.132;5.442;2023-06-01T01:12:40;7.20;;;3.55;;
71965;SDS011;59836;52.132;5.442;2023-06-01T01:15:26;7.43;;;3.20;;
71965;SDS011;59836;52.132;5.442;2023-06-01T01:18:11;6.40;;;3.30;;
71965;SDS011;59836;52.132;5.442;2023-06-01T01:20:44;11.07;;;3.90;;
71965;SDS011;59836;52.132;5.442;2023-06-01T01:29:06;6.85;;;3.53;;
71965;SDS011;59836;52.132;5.442;2023-06-01T01:31:35;6.47;;;3.70;;
71965;SDS011;59836;52.132;5.442;2023-06-01T01:34:04;8.27;;;3.90;;
71965;SDS011;59836;52.132;5.442;2023-06-01T01:36:32;6.95;;;3.17;;
71965;SDS011;59836;52.132;5.442;2023-06-01T01:38:58;8.73;;;4.35;;
71965;SDS011;59836;52.132;5.442;2023-06-01T01:41:25;6.20;;;3.40;;
71965;SDS011;59836;52.132;5.442;2023-06-01T01:43:54;7.33;;;3.63;;
71965;SDS011;59836;52.132;5.442;2023-06-01T01:46:24;7.35;;;3.70;;
71965;SDS011;59836;52.132;5.442;2023-06-01T01:49:12;7.97;;;3.60;;
71965;SDS011;59836;52.132;5.442;2023-06-01T01:51:56;6.20;;;3.60;;
71965;SDS011;59836;52.132;5.442;2023-06-01T01:54:28;6.25;;;3.63;;
71965;SDS011;59836;52.132;5.442;2023-06-01T01:56:57;7.73;;;3.50;;
71965;SDS011;59836;52.132;5.442;2023-06-01T01:59:24;9.65;;;4.13;;
71965;SDS011;59836;52.132;5.442;2023-06-01T02:01:53;7.18;;;4.03;;
71965;SDS011;59836;52.132;5.442;2023-06-01T02:04:20;6.72;;;3.42;;
71965;SDS011;59836;52.132;5.442;2023-06-01T02:06:46;9.73;;;3.90;;
71965;SDS011;59836;52.132;5.442;2023-06-01T02:09:12;7.23;;;4.10;;
71965;SDS011;59836;52.132;5.442;2023-06-01T02:11:39;6.93;;;4.00;;
71965;SDS011;59836;52.132;5.442;2023-06-01T02:14:05;7.30;;;4.47;;
71965;SDS011;59836;52.132;5.442;2023-06-01T02:16:32;7.97;;;3.75;;
71965;SDS011;59836;52.132;5.442;2023-06-01T02:18:59;8.10;;;4.10;;
71965;SDS011;59836;52.132;5.442;2023-06-01T02:21:25;9.20;;;3.73;;
71965;SDS011;59836;52.132;5.442;2023-06-01T02:23:52;8.30;;;4.47;;
71965;SDS011;59836;52.132;5.442;2023-06-01T02:26:19;10.60;;;4.00;;
71965;SDS011;59836;52.132;5.442;2023-06-01T02:28:45;7.30;;;4.22;;
71965;SDS011;59836;52.132;5.442;2023-06-01T02:31:13;8.40;;;4.45;;
71965;SDS011;59836;52.132;5.442;2023-06-01T02:33:41;7.77;;;4.53;;
71965;SDS011;59836;52.132;5.442;2023-06-01T02:36:07;7.60;;;4.35;;
71965;SDS011;59836;52.132;5.442;2023-06-01T02:38:34;8.73;;;4.57;;
71965;SDS011;59836;52.132;5.442;2023-06-01T02:41:00;11.00;;;4.35;;
71965;SDS011;59836;52.132;5.442;2023-06-01T02:43:27;9.32;;;4.85;;
71965;SDS011;59836;52.132;5.442;2023-06-01T02:45:54;10.23;;;4.87;;
71965;SDS011;59836;52.132;5.442;2023-06-01T02:48:21;7.65;;;4.05;;
71965;SDS011;59836;52.132;5.442;2023-06-01T02:50:48;9.85;;;4.68;;
71965;SDS011;59836;52.132;5.442;2023-06-01T02:53:14;9.20;;;4.10;;
71965;SDS011;59836;52.132;5.442;2023-06-01T02:55:41;8.43;;;4.38;;
71965;SDS011;59836;52.132;5.442;2023-06-01T02:58:08;9.40;;;4.20;;
71965;SDS011;59836;52.132;5.442;2023-06-01T03:00:41;12.52;;;5.10;;
71965;SDS011;59836;52.132;5.442;2023-06-01T03:03:07;10.25;;;4.30;;
71965;SDS011;59836;52.132;5.442;2023-06-01T03:05:34;8.30;;;4.32;;
71965;SDS011;59836;52.132;5.442;2023-06-01T03:08:02;10.38;;;4.55;;
71965;SDS011;59836;52.132;5.442;2023-06-01T03:10:28;9.50;;;4.60;;
71965;SDS011;59836;52.132;5.442;2023-06-01T03:12:55;9.93;;;4.25;;
71965;SDS011;59836;52.132;5.442;2023-06-01T03:15:23;8.95;;;4.45;;
71965;SDS011;59836;52.132;5.442;2023-06-01T03:17:49;9.25;;;4.72;;
71965;SDS011;59836;52.132;5.442;2023-06-01T03:20:16;9.20;;;4.43;;
71965;SDS011;59836;52.132;5.442;2023-06-01T03:22:45;8.77;;;4.60;;
71965;SDS011;59836;52.132;5.442;2023-06-01T03:25:12;8.23;;;4.20;;
71965;SDS011;59836;52.132;5.442;2023-06-01T03:27:39;8.60;;;4.10;;
71965;SDS011;59836;52.132;5.442;2023-06-01T03:30:07;9.65;;;4.50;;
71965;SDS011;59836;52.132;5.442;2023-06-01T03:32:41;8.70;;;4.70;;
71965;SDS011;59836;52.132;5.442;2023-06-01T03:35:09;9.33;;;5.03;;
71965;SDS011;59836;52.132;5.442;2023-06-01T03:37:38;8.90;;;4.65;;
71965;SDS011;59836;52.132;5.442;2023-06-01T03:40:06;6.85;;;4.03;;
71965;SDS011;59836;52.132;5.442;2023-06-01T03:42:40;8.25;;;4.70;;
71965;SDS011;59836;52.132;5.442;2023-06-01T03:45:08;10.82;;;4.70;;
71965;SDS011;59836;52.132;5.442;2023-06-01T03:47:36;9.13;;;4.23;;
71965;SDS011;59836;52.132;5.442;2023-06-01T03:50:03;11.73;;;4.55;;
71965;SDS011;59836;52.132;5.442;2023-06-01T03:52:32;9.65;;;4.78;;
71965;SDS011;59836;52.132;5.442;2023-06-01T03:55:00;7.68;;;4.13;;
71965;SDS011;59836;52.132;5.442;2023-06-01T03:57:28;9.32;;;4.88;;
71965;SDS011;59836;52.132;5.442;2023-06-01T03:59:54;8.00;;;4.30;;
71965;SDS011;59836;52.132;5.442;2023-06-01T04:02:21;10.23;;;4.53;;
71965;SDS011;59836;52.132;5.442;2023-06-01T04:04:49;9.13;;;4.05;;
71965;SDS011;59836;52.132;5.442;2023-06-01T04:07:16;8.82;;;4.55;;
71965;SDS011;59836;52.132;5.442;2023-06-01T04:09:45;9.68;;;4.78;;
71965;SDS011;59836;52.132;5.442;2023-06-01T04:12:15;8.50;;;4.43;;
71965;SDS011;59836;52.132;5.442;2023-06-01T04:14:41;8.32;;;4.70;;
71965;SDS011;59836;52.132;5.442;2023-06-01T04:17:08;10.25;;;4.70;;
71965;SDS011;59836;52.132;5.442;2023-06-01T04:19:34;8.10;;;4.85;;
71965;SDS011;59836;52.132;5.442;2023-06-01T04:22:01;11.57;;;4.40;;
71965;SDS011;59836;52.132;5.442;2023-06-01T04:24:27;10.23;;;4.10;;
71965;SDS011;59836;52.132;5.442;2023-06-01T04:26:54;11.60;;;4.20;;
71965;SDS011;59836;52.132;5.442;2023-06-01T04:29:22;8.43;;;3.72;;
71965;SDS011;59836;52.132;5.442;2023-06-01T04:31:51;8.18;;;3.92;;
71965;SDS011;59836;52.132;5.442;2023-06-01T04:34:17;10.80;;;4.88;;
71965;SDS011;59836;52.132;5.442;2023-06-01T04:36:44;8.60;;;4.00;;
71965;SDS011;59836;52.132;5.442;2023-06-01T04:39:12;10.38;;;3.90;;
71965;SDS011;59836;52.132;5.442;2023-06-01T04:41:39;10.48;;;3.40;;
71965;SDS011;59836;52.132;5.442;2023-06-01T04:44:05;7.45;;;4.10;;
71965;SDS011;59836;52.132;5.442;2023-06-01T04:46:32;10.10;;;3.85;;
71965;SDS011;59836;52.132;5.442;2023-06-01T04:48:59;8.37;;;4.13;;
71965;SDS011;59836;52.132;5.442;2023-06-01T04:51:27;10.80;;;3.80;;
71965;SDS011;59836;52.132;5.442;2023-06-01T04:53:55;9.13;;;3.85;;
71965;SDS011;59836;52.132;5.442;2023-06-01T04:56:22;7.78;;;3.75;;
71965;SDS011;59836;52.132;5.442;2023-06-01T04:58:54;8.45;;;3.90;;
71965;SDS011;59836;52.132;5.442;2023-06-01T05:01:21;10.10;;;4.10;;
71965;SDS011;59836;52.132;5.442;2023-06-01T05:03:52;6.95;;;3.20;;
71965;SDS011;59836;52.132;5.442;2023-06-01T05:06:21;8.85;;;4.22;;
71965;SDS011;59836;52.132;5.442;2023-06-01T05:08:48;8.05;;;3.85;;
71965;SDS011;59836;52.132;5.442;2023-06-01T05:11:15;7.30;;;4.07;;
71965;SDS011;59836;52.132;5.442;2023-06-01T05:13:41;8.40;;;3.40;;
71965;SDS011;59836;52.132;5.442;2023-06-01T05:16:08;13.35;;;4.13;;
71965;SDS011;59836;52.132;5.442;2023-06-01T05:18:35;8.18;;;4.05;;
71965;SDS011;59836;52.132;5.442;2023-06-01T05:21:02;9.15;;;4.30;;
71965;SDS011;59836;52.132;5.442;2023-06-01T05:23:29;9.48;;;4.78;;
71965;SDS011;59836;52.132;5.442;2023-06-01T05:25:56;13.03;;;4.50;;
71965;SDS011;59836;52.132;5.442;2023-06-01T05:28:29;10.00;;;3.80;;
71965;SDS011;59836;52.132;5.442;2023-06-01T05:30:58;9.48;;;4.10;;
71965;SDS011;59836;52.132;5.442;2023-06-01T05:33:26;11.85;;;4.65;;
71965;SDS011;59836;52.132;5.442;2023-06-01T05:35:52;7.63;;;4.60;;
71965;SDS011;59836;52.132;5.442;2023-06-01T05:38:19;8.93;;;4.33;;
71965;SDS011;59836;52.132;5.442;2023-06-01T05:40:45;7.85;;;4.70;;
71965;SDS011;59836;52.132;5.442;2023-06-01T05:43:12;10.77;;;5.13;;
71965;SDS011;59836;52.132;5.442;2023-06-01T05:45:38;11.82;;;4.68;;
71965;SDS011;59836;52.132;5.442;2023-06-01T05:48:05;8.60;;;4.57;;
71965;SDS011;59836;52.132;5.442;2023-06-01T05:50:31;10.20;;;4.17;;
71965;SDS011;59836;52.132;5.442;2023-06-01T05:52:58;8.85;;;4.70;;
71965;SDS011;59836;52.132;5.442;2023-06-01T05:55:24;11.65;;;4.53;;
71965;SDS011;59836;52.132;5.442;2023-06-01T05:57:51;11.68;;;4.47;;
71965;SDS011;59836;52.132;5.442;2023-06-01T06:00:18;9.00;;;4.78;;
71965;SDS011;59836;52.132;5.442;2023-06-01T06:02:44;9.13;;;4.33;;
71965;SDS011;59836;52.132;5.442;2023-06-01T06:05:11;8.95;;;4.03;;
71965;SDS011;59836;52.132;5.442;2023-06-01T06:07:37;10.57;;;4.30;;
71965;SDS011;59836;52.132;5.442;2023-06-01T06:10:05;8.13;;;4.03;;
71965;SDS011;59836;52.132;5.442;2023-06-01T06:12:32;9.07;;;4.25;;
71965;SDS011;59836;52.132;5.442;2023-06-01T06:14:58;8.53;;;4.17;;
71965;SDS011;59836;52.132;5.442;2023-06-01T06:17:25;7.07;;;4.35;;
71965;SDS011;59836;52.132;5.442;2023-06-01T06:19:51;8.73;;;4.35;;
71965;SDS011;59836;52.132;5.442;2023-06-01T06:22:18;8.77;;;4.15;;
71965;SDS011;59836;52.132;5.442;2023-06-01T06:24:45;10.93;;;4.63;;
71965;SDS011;59836;52.132;5.442;2023-06-01T06:27:13;10.23;;;4.20;;
71965;SDS011;59836;52.132;5.442;2023-06-01T06:29:40;9.80;;;4.25;;
71965;SDS011;59836;52.132;5.442;2023-06-01T06:32:06;9.18;;;4.00;;
71965;SDS011;59836;52.132;5.442;2023-06-01T06:34:33;8.65;;;4.30;;
71965;SDS011;59836;52.132;5.442;2023-06-01T06:37:05;8.57;;;4.20;;
71965;SDS011;59836;52.132;5.442;2023-06-01T06:39:32;8.63;;;3.97;;
71965;SDS011;59836;52.132;5.442;2023-06-01T06:41:59;10.27;;;4.65;;
71965;SDS011;59836;52.132;5.442;2023-06-01T06:44:28;7.63;;;4.28;;
71965;SDS011;59836;52.132;5.442;2023-06-01T06:46:55;11.52;;;4.50;;
71965;SDS011;59836;52.132;5.442;2023-06-01T06:49:27;8.98;;;4.43;;
71965;SDS011;59836;52.132;5.442;2023-06-01T06:51:54;10.50;;;4.70;;
71965;SDS011;59836;52.132;5.442;2023-06-01T06:54:20;11.82;;;4.60;;
71965;SDS011;59836;52.132;5.442;2023-06-01T06:56:48;11.15;;;4.78;;
71965;SDS011;59836;52.132;5.442;2023-06-01T06:59:14;10.13;;;4.63;;
71965;SDS011;59836;52.132;5.442;2023-06-01T07:01:40;12.20;;;4.82;;
71965;SDS011;59836;52.132;5.442;2023-06-01T07:04:07;11.10;;;4.87;;
71965;SDS011;59836;52.132;5.442;2023-06-01T07:06:35;11.30;;;4.95;;
71965;SDS011;59836;52.132;5.442;2023-06-01T07:09:01;11.25;;;4.47;;
71965;SDS011;59836;52.132;5.442;2023-06-01T07:11:29;9.52;;;4.47;;
71965;SDS011;59836;52.132;5.442;2023-06-01T07:13:56;9.10;;;4.75;;
71965;SDS011;59836;52.132;5.442;2023-06-01T07:16:24;8.77;;;4.60;;
71965;SDS011;59836;52.132;5.442;2023-06-01T07:18:55;13.73;;;5.13;;
71965;SDS011;59836;52.132;5.442;2023-06-01T07:21:22;9.00;;;4.50;;
71965;SDS011;59836;52.132;5.442;2023-06-01T07:23:49;8.32;;;4.20;;
71965;SDS011;59836;52.132;5.442;2023-06-01T07:26:16;10.20;;;4.20;;
71965;SDS011;59836;52.132;5.442;2023-06-01T07:28:42;11.07;;;4.20;;
71965;SDS011;59836;52.132;5.442;2023-06-01T07:31:09;9.00;;;3.90;;
71965;SDS011;59836;52.132;5.442;2023-06-01T07:33:35;8.52;;;4.05;;
71965;SDS011;59836;52.132;5.442;2023-06-01T07:36:03;8.95;;;3.75;;
71965;SDS011;59836;52.132;5.442;2023-06-01T07:38:32;8.52;;;4.10;;
71965;SDS011;59836;52.132;5.442;2023-06-01T07:40:59;7.37;;;3.70;;
71965;SDS011;59836;52.132;5.442;2023-06-01T07:43:26;9.68;;;4.13;;
71965;SDS011;59836;52.132;5.442;2023-06-01T07:45:53;8.98;;;4.20;;
71965;SDS011;59836;52.132;5.442;2023-06-01T07:48:20;8.50;;;4.55;;
71965;SDS011;59836;52.132;5.442;2023-06-01T07:50:47;7.10;;;3.63;;
71965;SDS011;59836;52.132;5.442;2023-06-01T07:53:14;9.90;;;4.50;;
71965;SDS011;59836;52.132;5.442;2023-06-01T07:55:40;7.32;;;3.90;;
71965;SDS011;59836;52.132;5.442;2023-06-01T07:58:07;9.55;;;3.58;;
71965;SDS011;59836;52.132;5.442;2023-06-01T08:00:33;9.50;;;3.67;;
71965;SDS011;59836;52.132;5.442;2023-06-01T08:03:00;10.27;;;4.30;;
71965;SDS011;59836;52.132;5.442;2023-06-01T08:05:33;10.53;;;4.40;;
71965;SDS011;59836;52.132;5.442;2023-06-01T08:08:04;8.95;;;4.07;;
71965;SDS011;59836;52.132;5.442;2023-06-01T08:10:31;8.02;;;4.03;;
71965;SDS011;59836;52.132;5.442;2023-06-01T08:12:57;8.18;;;3.67;;
71965;SDS011;59836;52.132;5.442;2023-06-01T08:15:24;8.70;;;4.85;;
71965;SDS011;59836;52.132;5.442;2023-06-01T08:17:52;6.13;;;3.70;;
71965;SDS011;59836;52.132;5.442;2023-06-01T08:20:19;7.53;;;3.42;;
71965;SDS011;59836;52.132;5.442;2023-06-01T08:22:49;6.05;;;3.15;;
71965;SDS011;59836;52.132;5.442;2023-06-01T08:25:17;7.72;;;3.50;;
71965;SDS011;59836;52.132;5.442;2023-06-01T08:27:44;6.38;;;2.88;;
71965;SDS011;59836;52.132;5.442;2023-06-01T08:30:11;10.03;;;2.97;;
71965;SDS011;59836;52.132;5.442;2023-06-01T08:32:37;8.68;;;3.90;;
71965;SDS011;59836;52.132;5.442;2023-06-01T08:35:05;5.38;;;3.33;;
71965;SDS011;59836;52.132;5.442;2023-06-01T08:37:34;9.45;;;3.20;;
71965;SDS011;59836;52.132;5.442;2023-06-01T08:40:01;7.72;;;3.10;;
71965;SDS011;59836;52.132;5.442;2023-06-01T08:42:44;8.63;;;3.20;;
71965;SDS011;59836;52.132;5.442;2023-06-01T08:45:21;6.13;;;3.60;;
71965;SDS011;59836;52.132;5.442;2023-06-01T08:47:49;5.57;;;3.30;;
71965;SDS011;59836;52.132;5.442;2023-06-01T08:50:19;7.20;;;3.20;;
71965;SDS011;59836;52.132;5.442;2023-06-01T08:52:49;6.43;;;3.40;;
71965;SDS011;59836;52.132;5.442;2023-06-01T08:55:20;4.90;;;2.70;;
71965;SDS011;59836;52.132;5.442;2023-06-01T08:57:47;9.65;;;3.30;;
71965;SDS011;59836;52.132;5.442;2023-06-01T09:00:14;7.88;;;3.50;;
71965;SDS011;59836;52.132;5.442;2023-06-01T09:02:42;8.02;;;3.63;;
71965;SDS011;59836;52.132;5.442;2023-06-01T09:05:09;6.88;;;3.40;;
71965;SDS011;59836;52.132;5.442;2023-06-01T09:07:37;9.27;;;3.43;;
71965;SDS011;59836;52.132;5.442;2023-06-01T09:10:05;10.35;;;4.10;;
71965;SDS011;59836;52.132;5.442;2023-06-01T09:12:32;8.07;;;3.22;;
71965;SDS011;59836;52.132;5.442;2023-06-01T09:15:15;6.50;;;3.90;;
71965;SDS011;59836;52.132;5.442;2023-06-01T09:17:44;8.65;;;4.00;;
71965;SDS011;59836;52.132;5.442;2023-06-01T09:20:26;9.07;;;3.77;;
71965;SDS011;59836;52.132;5.442;2023-06-01T09:22:54;6.63;;;3.75;;
71965;SDS011;59836;52.132;5.442;2023-06-01T09:25:25;8.73;;;3.67;;
71965;SDS011;59836;52.132;5.442;2023-06-01T09:27:56;7.47;;;3.90;;
71965;SDS011;59836;52.132;5.442;2023-06-01T09:30:24;7.57;;;3.65;;
71965;SDS011;59836;52.132;5.442;2023-06-01T09:35:54;7.53;;;3.75;;
71965;SDS011;59836;52.132;5.442;2023-06-01T09:38:21;7.47;;;3.88;;
71965;SDS011;59836;52.132;5.442;2023-06-01T09:40:59;8.13;;;4.45;;
71965;SDS011;59836;52.132;5.442;2023-06-01T09:43:27;8.07;;;3.50;;
71965;SDS011;59836;52.132;5.442;2023-06-01T09:46:06;6.87;;;3.40;;
71965;SDS011;59836;52.132;5.442;2023-06-01T09:48:40;6.85;;;4.13;;
71965;SDS011;59836;52.132;5.442;2023-06-01T09:51:20;6.75;;;3.80;;
71965;SDS011;59836;52.132;5.442;2023-06-01T09:53:48;8.73;;;4.00;;
71965;SDS011;59836;52.132;5.442;2023-06-01T09:56:15;7.93;;;3.72;;
71965;SDS011;59836;52.132;5.442;2023-06-01T09:58:41;6.57;;;3.70;;
71965;SDS011;59836;52.132;5.442;2023-06-01T10:01:09;7.35;;;4.10;;
71965;SDS011;59836;52.132;5.442;2023-06-01T10:03:38;6.97;;;3.42;;
71965;SDS011;59836;52.132;5.442;2023-06-01T10:06:10;7.10;;;3.63;;
71965;SDS011;59836;52.132;5.442;2023-06-01T10:08:38;7.00;;;4.07;;
71965;SDS011;59836;52.132;5.442;2023-06-01T10:11:06;8.97;;;4.17;;
71965;SDS011;59836;52.132;5.442;2023-06-01T10:13:34;6.95;;;3.78;;
71965;SDS011;59836;52.132;5.442;2023-06-01T10:16:01;8.70;;;3.90;;
71965;SDS011;59836;52.132;5.442;2023-06-01T10:18:30;6.35;;;3.97;;
71965;SDS011;59836;52.132;5.442;2023-06-01T10:20:57;8.32;;;4.40;;
71965;SDS011;59836;52.132;5.442;2023-06-01T10:23:23;9.07;;;4.03;;
71965;SDS011;59836;52.132;5.442;2023-06-01T10:25:56;8.18;;;3.70;;
71965;SDS011;59836;52.132;5.442;2023-06-01T10:28:25;7.82;;;3.55;;
71965;SDS011;59836;52.132;5.442;2023-06-01T10:34:35;8.38;;;4.13;;
71965;SDS011;59836;52.132;5.442;2023-06-01T10:37:11;9.77;;;4.10;;
71965;SDS011;59836;52.132;5.442;2023-06-01T10:39:39;8.48;;;4.07;;
71965;SDS011;59836;52.132;5.442;2023-06-01T10:47:05;8.90;;;4.10;;
71965;SDS011;59836;52.132;5.442;2023-06-01T10:52:28;6.75;;;3.28;;
71965;SDS011;59836;52.132;5.442;2023-06-01T10:55:18;10.00;;;3.83;;
71965;SDS011;59836;52.132;5.442;2023-06-01T10:57:43;6.35;;;3.53;;
71965;SDS011;59836;52.132;5.442;2023-06-01T11:00:11;5.78;;;3.53;;
71965;SDS011;59836;52.132;5.442;2023-06-01T11:03:01;6.50;;;3.00;;
71965;SDS011;59836;52.132;5.442;2023-06-01T11:05:32;6.07;;;2.97;;
71965;SDS011;59836;52.132;5.442;2023-06-01T11:13:18;5.70;;;2.92;;
71965;SDS011;59836;52.132;5.442;2023-06-01T11:18:53;6.47;;;2.28;;
71965;SDS011;59836;52.132;5.442;2023-06-01T11:21:26;6.25;;;2.92;;
71965;SDS011;59836;52.132;5.442;2023-06-01T11:24:04;5.18;;;2.35;;
71965;SDS011;59836;52.132;5.442;2023-06-01T11:26:34;5.78;;;2.90;;
71965;SDS011;59836;52.132;5.442;2023-06-01T11:29:03;5.17;;;3.07;;
71965;SDS011;59836;52.132;5.442;2023-06-01T11:31:45;6.90;;;3.15;;
71965;SDS011;59836;52.132;5.442;2023-06-01T11:34:15;6.78;;;2.83;;
71965;SDS011;59836;52.132;5.442;2023-06-01T11:36:45;6.07;;;2.55;;
71965;SDS011;59836;52.132;5.442;2023-06-01T11:42:07;5.97;;;2.67;;
71965;SDS011;59836;52.132;5.442;2023-06-01T11:44:44;7.07;;;2.90;;
71965;SDS011;59836;52.132;5.442;2023-06-01T11:47:14;5.03;;;2.70;;
71965;SDS011;59836;52.132;5.442;2023-06-01T11:49:45;5.50;;;2.80;;
71965;SDS011;59836;52.132;5.442;2023-06-01T11:52:16;4.40;;;2.67;;
71965;SDS011;59836;52.132;5.442;2023-06-01T11:54:44;6.07;;;2.60;;
71965;SDS011;59836;52.132;5.442;2023-06-01T11:57:11;7.28;;;2.97;;
71965;SDS011;59836;52.132;5.442;2023-06-01T11:59:45;4.00;;;2.22;;
71965;SDS011;59836;52.132;5.442;2023-06-01T12:02:19;7.00;;;2.70;;
71965;SDS011;59836;52.132;5.442;2023-06-01T12:04:57;4.22;;;2.65;;
71965;SDS011;59836;52.132;5.442;2023-06-01T12:07:49;4.20;;;2.03;;
71965;SDS011;59836;52.132;5.442;2023-06-01T12:10:21;5.45;;;2.55;;
71965;SDS011;59836;52.132;5.442;2023-06-01T12:12:48;4.15;;;2.13;;
71965;SDS011;59836;52.132;5.442;2023-06-01T12:15:16;3.78;;;2.20;;
71965;SDS011;59836;52.132;5.442;2023-06-01T12:17:48;4.50;;;2.55;;
71965;SDS011;59836;52.132;5.442;2023-06-01T12:20:25;5.03;;;2.60;;
71965;SDS011;59836;52.132;5.442;2023-06-01T12:22:59;4.43;;;2.17;;
71965;SDS011;59836;52.132;5.442;2023-06-01T12:25:29;7.63;;;2.42;;
71965;SDS011;59836;52.132;5.442;2023-06-01T12:28:08;5.05;;;2.28;;
71965;SDS011;59836;52.132;5.442;2023-06-01T12:30:36;4.85;;;2.45;;
71965;SDS011;59836;52.132;5.442;2023-06-01T12:33:03;5.00;;;3.00;;
71965;SDS011;59836;52.132;5.442;2023-06-01T12:35:30;4.80;;;2.33;;
71965;SDS011;59836;52.132;5.442;2023-06-01T12:40:36;4.82;;;2.20;;
71965;SDS011;59836;52.132;5.442;2023-06-01T12:43:04;4.45;;;2.17;;
71965;SDS011;59836;52.132;5.442;2023-06-01T12:45:42;5.60;;;2.67;;
71965;SDS011;59836;52.132;5.442;2023-06-01T12:48:09;5.05;;;2.33;;
71965;SDS011;59836;52.132;5.442;2023-06-01T12:50:55;5.85;;;2.38;;
71965;SDS011;59836;52.132;5.442;2023-06-01T12:53:24;8.95;;;2.50;;
71965;SDS011;59836;52.132;5.442;2023-06-01T12:55:50;4.75;;;3.00;;
71965;SDS011;59836;52.132;5.442;2023-06-01T12:58:17;8.10;;;3.00;;
71965;SDS011;59836;52.132;5.442;2023-06-01T13:00:43;5.75;;;2.67;;
71965;SDS011;59836;52.132;5.442;2023-06-01T13:03:13;5.70;;;2.38;;
71965;SDS011;59836;52.132;5.442;2023-06-01T13:05:41;7.35;;;2.80;;
71965;SDS011;59836;52.132;5.442;2023-06-01T13:08:15;4.15;;;2.35;;
71965;SDS011;59836;52.132;5.442;2023-06-01T13:10:45;4.27;;;2.20;;
71965;SDS011;59836;52.132;5.442;2023-06-01T13:13:12;4.63;;;2.42;;
71965;SDS011;59836;52.132;5.442;2023-06-01T13:15:39;5.63;;;2.03;;
71965;SDS011;59836;52.132;5.442;2023-06-01T13:18:06;7.93;;;2.70;;
71965;SDS011;59836;52.132;5.442;2023-06-01T13:20:33;4.43;;;2.53;;
71965;SDS011;59836;52.132;5.442;2023-06-01T13:22:59;5.17;;;2.07;;
71965;SDS011;59836;52.132;5.442;2023-06-01T13:25:26;3.70;;;2.20;;
71965;SDS011;59836;52.132;5.442;2023-06-01T13:27:53;5.05;;;2.33;;
71965;SDS011;59836;52.132;5.442;2023-06-01T13:30:20;3.92;;;2.30;;
71965;SDS011;59836;52.132;5.442;2023-06-01T13:32:46;4.25;;;2.00;;
71965;SDS011;59836;52.132;5.442;2023-06-01T13:35:13;4.70;;;2.13;;
71965;SDS011;59836;52.132;5.442;2023-06-01T13:37:39;6.10;;;2.03;;
71965;SDS011;59836;52.132;5.442;2023-06-01T13:40:06;4.22;;;1.85;;
71965;SDS011;59836;52.132;5.442;2023-06-01T13:42:33;4.80;;;2.15;;
71965;SDS011;59836;52.132;5.442;2023-06-01T13:44:59;3.95;;;2.00;;
71965;SDS011;59836;52.132;5.442;2023-06-01T13:47:26;3.87;;;1.80;;
71965;SDS011;59836;52.132;5.442;2023-06-01T13:49:53;4.68;;;1.88;;
71965;SDS011;59836;52.132;5.442;2023-06-01T13:52:19;2.25;;;1.45;;
71965;SDS011;59836;52.132;5.442;2023-06-01T13:54:45;3.90;;;2.17;;
71965;SDS011;59836;52.132;5.442;2023-06-01T13:57:12;3.38;;;1.70;;
71965;SDS011;59836;52.132;5.442;2023-06-01T13:59:38;3.03;;;1.90;;
71965;SDS011;59836;52.132;5.442;2023-06-01T14:02:05;3.05;;;1.63;;
71965;SDS011;59836;52.132;5.442;2023-06-01T14:04:32;4.13;;;1.75;;
71965;SDS011;59836;52.132;5.442;2023-06-01T14:06:58;2.17;;;1.70;;
71965;SDS011;59836;52.132;5.442;2023-06-01T14:09:25;2.25;;;1.50;;
71965;SDS011;59836;52.132;5.442;2023-06-01T14:11:52;4.23;;;1.97;;
71965;SDS011;59836;52.132;5.442;2023-06-01T14:14:18;3.30;;;1.80;;
71965;SDS011;59836;52.132;5.442;2023-06-01T14:16:45;3.70;;;1.60;;
71965;SDS011;59836;52.132;5.442;2023-06-01T14:19:12;2.88;;;1.70;;
71965;SDS011;59836;52.132;5.442;2023-06-01T14:21:38;2.78;;;1.80;;
71965;SDS011;59836;52.132;5.442;2023-06-01T14:24:05;4.93;;;2.00;;
71965;SDS011;59836;52.132;5.442;2023-06-01T14:26:31;3.58;;;1.83;;
71965;SDS011;59836;52.132;5.442;2023-06-01T14:28:58;2.20;;;1.30;;
71965;SDS011;59836;52.132;5.442;2023-06-01T14:31:24;2.58;;;1.60;;
71965;SDS011;59836;52.132;5.442;2023-06-01T14:33:51;3.75;;;1.58;;
71965;SDS011;59836;52.132;5.442;2023-06-01T14:36:17;2.23;;;1.33;;
71965;SDS011;59836;52.132;5.442;2023-06-01T14:38:49;2.40;;;1.30;;
71965;SDS011;59836;52.132;5.442;2023-06-01T14:41:16;1.60;;;1.15;;
71965;SDS011;59836;52.132;5.442;2023-06-01T14:43:42;2.55;;;1.45;;
71965;SDS011;59836;52.132;5.442;2023-06-01T14:46:09;3.30;;;1.92;;
71965;SDS011;59836;52.132;5.442;2023-06-01T14:48:35;1.90;;;1.37;;
71965;SDS011;59836;52.132;5.442;2023-06-01T14:51:02;2.20;;;1.63;;
71965;SDS011;59836;52.132;5.442;2023-06-01T14:53:29;2.47;;;1.40;;
71965;SDS011;59836;52.132;5.442;2023-06-01T14:55:55;3.55;;;1.73;;
71965;SDS011;59836;52.132;5.442;2023-06-01T14:58:22;2.15;;;1.38;;
71965;SDS011;59836;52.132;5.442;2023-06-01T15:00:48;4.90;;;1.73;;
71965;SDS011;59836;52.132;5.442;2023-06-01T15:03:16;3.03;;;1.60;;
71965;SDS011;59836;52.132;5.442;2023-06-01T15:05:43;3.22;;;1.75;;
71965;SDS011;59836;52.132;5.442;2023-06-01T15:08:10;2.40;;;1.60;;
71965;SDS011;59836;52.132;5.442;2023-06-01T15:10:36;3.00;;;1.42;;
71965;SDS011;59836;52.132;5.442;2023-06-01T15:13:03;2.90;;;1.70;;
71965;SDS011;59836;52.132;5.442;2023-06-01T15:15:29;4.90;;;1.70;;
71965;SDS011;59836;52.132;5.442;2023-06-01T15:17:56;2.22;;;1.50;;
71965;SDS011;59836;52.132;5.442;2023-06-01T15:20:22;2.80;;;1.88;;
71965;SDS011;59836;52.132;5.442;2023-06-01T15:22:49;2.33;;;1.60;;
71965;SDS011;59836;52.132;5.442;2023-06-01T15:25:15;2.63;;;1.60;;
71965;SDS011;59836;52.132;5.442;2023-06-01T15:27:42;4.10;;;1.90;;